Time;durP1;ratioP1;P1;durP2;ratioP2;P2;SDS_P1;SDS_P2;PMS_P1;PMS_P2;Temp;Humidity;BMP_temperature;BMP_pressure;BME280_temperature;BME280_humidity;BME280_pressure;Samples;Min_cycle;Max_cycle;Signal;HPM_P1;HPM_P2
2023/08/26 00:01:31;;;;;;;7.88;5.82;;;;;;;25.39;55.88;93139.38;4987595;28;20041;-92
2023/08/26 00:03:57;;;;;;;7.28;5.70;;;;;;;25.37;56.05;93128.84;5040435;28;20065;-92
2023/08/26 00:06:22;;;;;;;6.07;5.47;;;;;;;25.39;56.00;93123.50;5040806;28;20041;-91
2023/08/26 00:08:51;;;;;;;7.55;6.20;;;;;;;25.39;56.06;93120.00;5052545;28;20032;-91
2023/08/26 00:11:16;;;;;;;7.13;6.03;;;;;;;25.38;55.66;93116.50;5053056;28;20049;-91
2023/08/26 00:13:42;;;;;;;6.70;5.68;;;;;;;25.39;55.83;93114.47;5034475;28;20044;-91
2023/08/26 00:16:07;;;;;;;7.60;6.07;;;;;;;25.37;56.02;93109.50;5047785;28;20045;-91
2023/08/26 00:18:32;;;;;;;6.80;5.82;;;;;;;25.38;55.90;93118.53;5076374;28;20106;-91
2023/08/26 00:20:58;;;;;;;7.35;5.80;;;;;;;25.38;55.90;93124.78;5040786;28;20044;-91
2023/08/26 00:23:23;;;;;;;7.03;6.18;;;;;;;25.36;55.86;93126.66;5031564;28;20040;-91
2023/08/26 00:25:50;;;;;;;7.15;6.35;;;;;;;25.36;56.03;93118.34;5038873;28;20048;-92
2023/08/26 00:28:15;;;;;;;8.30;6.38;;;;;;;25.37;55.93;93119.81;5039497;28;20101;-91
2023/08/26 00:30:41;;;;;;;7.72;5.72;;;;;;;25.38;55.83;93124.06;5055535;28;20037;-91
2023/08/26 00:33:07;;;;;;;6.25;5.65;;;;;;;25.35;55.91;93123.16;5052776;28;20040;-92
2023/08/26 00:35:32;;;;;;;7.90;5.95;;;;;;;25.36;55.72;93130.16;5058781;28;20068;-92
2023/08/26 00:37:59;;;;;;;6.53;5.85;;;;;;;25.36;55.95;93126.66;5040749;28;20044;-92
2023/08/26 00:40:25;;;;;;;8.10;6.47;;;;;;;25.37;56.05;93139.94;5016387;28;20106;-91
2023/08/26 00:42:53;;;;;;;8.52;6.05;;;;;;;25.36;55.96;93134.97;5020009;28;20065;-90
2023/08/26 00:45:19;;;;;;;8.63;5.97;;;;;;;25.37;55.89;93136.44;5031560;28;20041;-92
2023/08/26 00:47:45;;;;;;;7.30;5.70;;;;;;;25.36;55.99;93134.97;5002159;28;20526;-92
2023/08/26 00:50:12;;;;;;;6.30;5.63;;;;;;;25.36;55.86;93129.41;5017621;28;20045;-92
2023/08/26 00:52:37;;;;;;;6.47;5.57;;;;;;;25.36;55.89;93135.69;5009677;28;20041;-92
2023/08/26 00:55:03;;;;;;;7.65;5.93;;;;;;;25.35;55.87;93123.16;5021969;28;20052;-92
2023/08/26 00:57:29;;;;;;;6.00;5.32;;;;;;;25.34;55.97;93127.22;5003893;28;20045;-93
2023/08/26 00:59:54;;;;;;;6.28;5.57;;;;;;;25.34;55.87;93132.00;5020194;28;20431;-91
2023/08/26 01:02:20;;;;;;;9.27;6.57;;;;;;;25.35;55.83;93130.72;5001111;28;20559;-91
2023/08/26 01:04:45;;;;;;;7.45;5.85;;;;;;;25.34;55.91;93129.97;5006437;28;20485;-91
2023/08/26 01:07:12;;;;;;;5.80;5.18;;;;;;;25.35;55.97;93131.44;4995056;28;20045;-92
2023/08/26 01:09:38;;;;;;;6.45;5.53;;;;;;;25.34;55.97;93121.69;5019554;28;20471;-91
2023/08/26 01:12:13;;;;;;;7.75;5.47;;;;;;;25.33;56.08;93127.81;5046076;28;20040;-91
2023/08/26 01:14:47;;;;;;;7.07;5.85;;;;;;;25.33;56.07;93117.47;5060396;28;20543;-91
2023/08/26 01:17:13;;;;;;;7.82;5.70;;;;;;;25.34;56.12;93129.25;5047234;28;20043;-92
2023/08/26 01:19:39;;;;;;;7.30;6.03;;;;;;;25.33;56.12;93128.53;5039942;28;20049;-92
2023/08/26 01:22:06;;;;;;;6.40;5.10;;;;;;;25.34;56.10;93137.56;5004000;28;20072;-91
2023/08/26 01:24:32;;;;;;;6.05;5.45;;;;;;;25.34;55.97;93132.75;5015737;28;20045;-92
2023/08/26 01:26:58;;;;;;;7.25;5.28;;;;;;;25.33;55.84;93122.28;5016827;28;21001;-92
2023/08/26 01:29:24;;;;;;;7.03;5.50;;;;;;;25.32;55.95;93118.78;5014465;28;20056;-92
2023/08/26 01:32:10;;;;;;;7.25;5.32;;;;;;;25.32;55.92;93110.47;5003772;28;20086;-91
2023/08/26 01:34:36;;;;;;;5.68;4.88;;;;;;;25.33;56.05;93111.94;5016457;28;20065;-91
2023/08/26 01:37:02;;;;;;;6.53;5.43;;;;;;;25.32;55.77;93113.25;5025311;28;20044;-91
2023/08/26 01:39:27;;;;;;;6.20;5.13;;;;;;;25.33;55.95;93119.50;5000848;28;20120;-91
2023/08/26 01:41:52;;;;;;;6.28;5.43;;;;;;;25.31;55.82;93099.97;5000890;28;20036;-92
2023/08/26 01:44:18;;;;;;;5.57;4.90;;;;;;;25.31;55.78;93100.69;5006938;28;20462;-92
2023/08/26 01:46:44;;;;;;;7.60;5.63;;;;;;;25.31;56.00;93109.00;5015500;28;20052;-92
2023/08/26 01:49:11;;;;;;;6.75;5.43;;;;;;;25.32;55.71;93090.38;5005028;28;20074;-91
2023/08/26 01:51:36;;;;;;;5.78;4.95;;;;;;;25.31;56.13;93097.19;5036238;28;20041;-93
2023/08/26 01:54:03;;;;;;;5.75;5.13;;;;;;;25.31;55.83;93095.16;5027343;28;20063;-91
2023/08/26 01:56:29;;;;;;;5.97;5.28;;;;;;;25.29;56.01;93092.22;5035004;28;20434;-91
2023/08/26 01:58:54;;;;;;;7.25;5.57;;;;;;;25.30;55.92;93088.16;5035203;28;20120;-92
2023/08/26 02:01:21;;;;;;;8.05;5.18;;;;;;;25.29;56.12;93086.69;5053377;28;20043;-92
2023/08/26 02:03:47;;;;;;;6.28;5.68;;;;;;;25.30;56.12;93081.88;5031840;28;20028;-92
2023/08/26 02:06:12;;;;;;;6.28;5.65;;;;;;;25.29;55.65;93083.91;5036683;28;20037;-91
2023/08/26 02:08:38;;;;;;;6.07;5.20;;;;;;;25.28;56.04;93074.88;5026417;28;20041;-91
2023/08/26 02:11:03;;;;;;;9.20;5.22;;;;;;;25.29;56.02;93067.31;5053734;28;20037;-91
2023/08/26 02:13:30;;;;;;;6.30;4.72;;;;;;;25.27;56.08;93045.75;5049047;28;20041;-91
2023/08/26 02:15:55;;;;;;;7.20;5.43;;;;;;;25.29;56.01;93050.72;5050092;28;20040;-91
2023/08/26 02:18:21;;;;;;;6.90;4.95;;;;;;;25.28;55.94;93041.69;5044525;28;20040;-92
2023/08/26 02:20:48;;;;;;;7.07;5.18;;;;;;;25.29;55.84;93039.66;5041052;28;20040;-93
2023/08/26 02:23:14;;;;;;;5.82;4.80;;;;;;;25.28;55.92;93036.16;5051349;28;20051;-91
2023/08/26 02:25:39;;;;;;;5.80;4.97;;;;;;;25.28;55.90;93038.19;5046646;28;20055;-91
2023/08/26 02:28:05;;;;;;;6.88;5.13;;;;;;;25.29;55.59;93028.59;5026324;28;20040;-92
2023/08/26 02:30:31;;;;;;;5.22;4.55;;;;;;;25.29;55.96;93028.59;5048643;28;20037;-91
2023/08/26 02:32:56;;;;;;;5.50;4.90;;;;;;;25.26;55.81;93027.69;5037675;28;20499;-90
2023/08/26 02:35:22;;;;;;;6.53;5.25;;;;;;;25.28;55.85;93027.13;5045372;28;20044;-91
2023/08/26 02:37:47;;;;;;;5.47;4.40;;;;;;;25.28;55.88;93032.66;5037172;28;20241;-92
2023/08/26 02:40:12;;;;;;;4.70;4.03;;;;;;;25.26;55.83;93035.97;5030059;28;20458;-91
2023/08/26 02:42:38;;;;;;;7.13;4.88;;;;;;;25.27;55.96;93028.41;5039169;28;20040;-92
2023/08/26 02:45:04;;;;;;;5.82;4.32;;;;;;;25.27;56.08;93020.13;5033060;28;20040;-92
2023/08/26 02:47:30;;;;;;;6.25;4.15;;;;;;;25.26;56.00;93013.13;5035244;28;20052;-92
2023/08/26 02:49:55;;;;;;;8.35;5.00;;;;;;;25.28;55.78;93027.13;5052966;28;20040;-92
2023/08/26 02:52:21;;;;;;;5.78;4.82;;;;;;;25.26;55.72;93016.63;5034335;28;20416;-91
2023/08/26 02:54:46;;;;;;;5.45;4.70;;;;;;;25.26;55.67;93004.81;5031520;28;20048;-91
2023/08/26 02:57:13;;;;;;;5.93;4.65;;;;;;;25.25;55.89;93001.31;5029816;28;20037;-92
2023/08/26 02:59:41;;;;;;;5.72;4.88;;;;;;;25.25;55.92;93003.34;5049012;28;20047;-92
2023/08/26 03:02:07;;;;;;;5.50;4.55;;;;;;;25.25;55.81;93001.31;5041164;28;20050;-91
2023/08/26 03:04:33;;;;;;;5.20;4.57;;;;;;;25.27;55.70;93001.47;5036368;28;20040;-92
2023/08/26 03:06:58;;;;;;;5.97;4.68;;;;;;;25.25;55.94;92992.28;5038652;28;20037;-91
2023/08/26 03:09:28;;;;;;;6.93;4.88;;;;;;;25.25;55.81;92995.78;5035869;28;20486;-91
2023/08/26 03:11:55;;;;;;;5.18;4.68;;;;;;;25.26;55.47;92990.97;5048607;28;20045;-92
2023/08/26 03:14:20;;;;;;;6.03;5.25;;;;;;;25.25;55.72;92992.28;5022543;28;20589;-92
2023/08/26 03:16:45;;;;;;;5.80;4.57;;;;;;;25.26;55.55;92988.94;5014398;28;20503;-92
2023/08/26 03:19:11;;;;;;;5.25;4.70;;;;;;;25.23;55.77;92984.53;5030547;28;20144;-91
2023/08/26 03:21:36;;;;;;;5.00;4.20;;;;;;;25.25;55.66;92993.00;5030917;28;20041;-92
2023/08/26 03:24:02;;;;;;;6.25;4.65;;;;;;;25.25;55.84;92986.75;5004305;28;20045;-92
2023/08/26 03:26:27;;;;;;;5.65;5.00;;;;;;;25.25;55.61;92989.50;5013426;28;20040;-92
2023/08/26 03:28:53;;;;;;;4.82;4.28;;;;;;;25.24;55.58;92999.84;5002727;28;20040;-92
2023/08/26 03:31:18;;;;;;;5.68;4.30;;;;;;;25.25;55.87;93001.31;5017351;28;20056;-91
2023/08/26 03:33:43;;;;;;;5.28;4.57;;;;;;;25.25;55.43;92997.81;5002510;28;20033;-92
2023/08/26 03:36:09;;;;;;;4.95;4.40;;;;;;;25.25;55.78;92993.00;5013800;28;20048;-91
2023/08/26 03:38:35;;;;;;;6.15;4.35;;;;;;;25.22;55.38;92988.59;5029152;28;20090;-91
2023/08/26 03:41:04;;;;;;;5.57;4.53;;;;;;;25.22;55.71;92994.16;5030100;28;20044;-91
2023/08/26 03:43:30;;;;;;;5.35;4.75;;;;;;;25.23;55.69;93006.69;5015892;28;20047;-91
2023/08/26 03:45:55;;;;;;;5.90;5.00;;;;;;;25.23;55.63;92998.38;5045164;28;20033;-92
2023/08/26 03:48:20;;;;;;;6.47;4.68;;;;;;;25.22;55.57;93005.22;5048702;28;20036;-91
2023/08/26 03:50:53;;;;;;;5.90;4.38;;;;;;;25.21;55.60;93011.31;5048202;28;20488;-91
2023/08/26 03:53:18;;;;;;;5.18;4.13;;;;;;;25.23;55.59;93019.78;5052826;28;20052;-91
2023/08/26 03:55:44;;;;;;;6.20;4.95;;;;;;;25.22;55.34;93013.50;5054419;28;20045;-92
2023/08/26 03:58:10;;;;;;;4.38;3.90;;;;;;;25.22;55.50;93016.28;5050020;28;20127;-91
2023/08/26 04:00:37;;;;;;;5.28;4.78;;;;;;;25.22;55.38;93030.09;5049521;28;20048;-91
2023/08/26 04:03:04;;;;;;;5.88;4.20;;;;;;;25.23;55.45;93041.91;5053211;28;20041;-91
2023/08/26 04:05:30;;;;;;;5.18;4.28;;;;;;;25.22;55.44;93040.44;5038313;28;20446;-91
2023/08/26 04:07:55;;;;;;;5.53;4.38;;;;;;;25.22;55.49;93046.72;5037365;28;20048;-91
2023/08/26 04:10:23;;;;;;;4.50;4.10;;;;;;;25.21;55.59;93044.50;5046763;28;20033;-92
2023/08/26 04:12:48;;;;;;;4.93;4.43;;;;;;;25.22;55.65;93055.00;5035843;28;20083;-92
2023/08/26 04:15:14;;;;;;;4.28;3.88;;;;;;;25.22;55.50;93062.56;5034126;28;20457;-91
2023/08/26 04:17:41;;;;;;;5.38;4.18;;;;;;;25.21;55.34;93072.91;5036050;28;20029;-91
2023/08/26 04:20:06;;;;;;;5.00;4.50;;;;;;;25.21;55.59;93078.44;5040794;28;20044;-92
2023/08/26 04:22:32;;;;;;;4.88;3.78;;;;;;;25.22;55.51;93082.66;5052318;28;20101;-91
2023/08/26 04:24:57;;;;;;;5.25;4.18;;;;;;;25.21;55.49;93086.72;5049692;28;20091;-91
2023/08/26 04:27:23;;;;;;;4.88;4.10;;;;;;;25.22;55.31;93087.47;5049520;28;20048;-92
2023/08/26 04:29:49;;;;;;;4.63;4.00;;;;;;;25.21;55.45;93091.53;5043259;28;20048;-92
2023/08/26 04:32:14;;;;;;;4.72;4.13;;;;;;;25.22;55.58;93090.22;5054831;28;20044;-91
2023/08/26 04:34:41;;;;;;;5.20;4.70;;;;;;;25.21;55.56;93089.50;5043357;28;20044;-92
2023/08/26 04:37:06;;;;;;;5.90;4.65;;;;;;;25.21;55.45;93092.28;5032933;28;20067;-91
2023/08/26 04:39:32;;;;;;;4.88;4.00;;;;;;;25.21;55.56;93091.53;5051396;28;20044;-91
2023/08/26 04:41:57;;;;;;;5.80;4.10;;;;;;;25.22;55.64;93093.00;5046820;28;20047;-91
2023/08/26 04:44:24;;;;;;;4.72;4.05;;;;;;;25.22;55.50;93099.28;5041132;28;20063;-91
2023/08/26 04:46:52;;;;;;;4.47;4.07;;;;;;;25.20;55.41;93090.78;5052570;28;20041;-92
2023/08/26 04:49:18;;;;;;;4.78;3.83;;;;;;;25.21;55.35;93103.34;5051327;28;20052;-92
2023/08/26 04:51:49;;;;;;;5.07;3.90;;;;;;;25.20;55.52;93101.13;5037685;28;20049;-92
2023/08/26 04:54:15;;;;;;;5.30;4.25;;;;;;;25.19;55.42;93103.16;5048636;28;20056;-93
2023/08/26 04:56:40;;;;;;;4.82;4.18;;;;;;;25.21;55.64;93099.84;5054689;28;20095;-91
2023/08/26 04:59:06;;;;;;;5.03;4.10;;;;;;;25.20;55.53;93095.59;5042559;28;20044;-92
2023/08/26 05:01:31;;;;;;;4.43;3.83;;;;;;;25.21;55.54;93106.09;5032471;28;20052;-91
2023/08/26 05:03:56;;;;;;;4.30;3.85;;;;;;;25.20;55.75;93115.69;5053898;28;20028;-91
2023/08/26 05:06:22;;;;;;;4.80;3.72;;;;;;;25.20;55.87;93129.53;5038839;28;20518;-92
2023/08/26 05:08:47;;;;;;;4.57;3.83;;;;;;;25.20;55.46;93132.28;5054769;28;20044;-92
2023/08/26 05:11:13;;;;;;;4.53;4.13;;;;;;;25.20;55.70;93128.78;5046047;28;20032;-92
2023/08/26 05:13:38;;;;;;;5.47;4.45;;;;;;;25.19;55.92;93149.44;5033652;28;20045;-92
2023/08/26 05:16:04;;;;;;;4.82;3.97;;;;;;;25.19;55.63;93164.03;5044104;28;20094;-91
2023/08/26 05:18:30;;;;;;;4.95;4.35;;;;;;;25.19;55.60;93174.34;5049519;28;20029;-91
2023/08/26 05:20:56;;;;;;;4.30;3.65;;;;;;;25.19;55.40;93199.25;5039705;28;20052;-91
2023/08/26 05:23:21;;;;;;;8.18;5.07;;;;;;;25.19;55.75;93207.53;5034585;28;20048;-91
2023/08/26 05:25:47;;;;;;;4.18;3.50;;;;;;;25.20;55.55;93209.75;5044317;28;20040;-91
2023/08/26 05:28:13;;;;;;;5.40;4.20;;;;;;;25.20;55.73;93204.22;5053620;28;20032;-91
2023/08/26 05:30:38;;;;;;;5.30;4.30;;;;;;;25.20;55.29;93218.06;5034722;28;20045;-91
2023/08/26 05:33:05;;;;;;;5.38;4.30;;;;;;;25.20;55.42;93218.06;5036574;28;20056;-92
2023/08/26 05:35:30;;;;;;;4.70;3.75;;;;;;;25.20;55.38;93211.78;5054419;28;20040;-91
2023/08/26 05:37:56;;;;;;;5.30;4.00;;;;;;;25.19;55.29;93216.59;5035208;28;20036;-91
2023/08/26 05:40:26;;;;;;;5.90;4.15;;;;;;;25.20;55.46;93223.59;5031333;28;20024;-91
2023/08/26 05:42:52;;;;;;;;;;;;;;;25.21;55.17;93227.81;5053731;28;20131;-91
2023/08/26 05:45:18;;;;;;;4.95;3.97;;;;;;;25.20;55.41;93250.53;5051977;28;19921;-92
2023/08/26 05:47:43;;;;;;;5.07;4.38;;;;;;;25.19;55.58;93249.03;5032521;28;20038;-91
2023/08/26 05:50:09;;;;;;;6.20;3.95;;;;;;;25.18;55.56;93245.53;5031631;28;20041;-91
2023/08/26 05:52:34;;;;;;;5.50;3.97;;;;;;;25.18;55.16;93255.88;5053043;28;20077;-92
2023/08/26 05:55:00;;;;;;;7.38;4.03;;;;;;;25.19;55.33;93271.19;5041554;28;20037;-92
2023/08/26 05:57:25;;;;;;;4.65;3.78;;;;;;;25.18;55.52;93270.44;5035039;28;20040;-92
2023/08/26 05:59:51;;;;;;;6.05;3.97;;;;;;;25.17;55.54;93243.34;5042297;28;20049;-91
2023/08/26 06:02:16;;;;;;;5.53;4.28;;;;;;;25.17;55.42;93244.06;5032567;28;20052;-91
2023/08/26 06:04:42;;;;;;;5.70;3.85;;;;;;;25.17;55.35;93252.38;5040603;28;20101;-92
2023/08/26 06:07:07;;;;;;;4.15;3.70;;;;;;;25.18;55.42;93270.44;5065507;28;20044;-92
2023/08/26 06:09:33;;;;;;;4.88;3.95;;;;;;;25.17;55.71;93263.44;5044913;28;20024;-92
2023/08/26 06:11:58;;;;;;;5.85;3.90;;;;;;;25.19;55.47;93260.09;5036090;28;20036;-93
2023/08/26 06:14:24;;;;;;;6.57;4.43;;;;;;;25.17;55.42;93263.44;5010512;28;20515;-92
2023/08/26 06:16:49;;;;;;;3.60;3.30;;;;;;;25.18;55.54;93247.56;5011664;28;20037;-91
2023/08/26 06:19:15;;;;;;;5.35;3.85;;;;;;;25.18;55.78;93253.84;5000860;28;20118;-91
2023/08/26 06:21:40;;;;;;;5.50;3.88;;;;;;;25.17;55.28;93263.44;5019298;28;20392;-91
2023/08/26 06:24:06;;;;;;;5.57;3.88;;;;;;;25.18;55.64;93270.44;5002782;28;20045;-91
2023/08/26 06:26:31;;;;;;;5.85;3.58;;;;;;;25.18;55.37;93272.47;5013470;28;20041;-91
2023/08/26 06:28:57;;;;;;;4.30;3.67;;;;;;;25.19;55.63;93285.00;5011602;28;20075;-91
2023/08/26 06:31:22;;;;;;;3.97;3.53;;;;;;;25.19;55.64;93285.75;4994667;28;20049;-91
2023/08/26 06:33:48;;;;;;;4.68;3.60;;;;;;;25.19;55.55;93293.31;4983351;28;20048;-91
2023/08/26 06:36:13;;;;;;;5.78;3.60;;;;;;;25.19;55.64;93294.03;5011127;28;20126;-92
2023/08/26 06:38:39;;;;;;;4.35;3.88;;;;;;;25.21;55.58;93301.78;5005010;28;20053;-90
2023/08/26 06:41:05;;;;;;;4.15;3.60;;;;;;;25.23;55.08;93313.03;4982023;28;20049;-90
2023/08/26 06:43:31;;;;;;;7.07;4.78;;;;;;;25.20;55.13;93320.41;5001664;28;20064;-90
2023/08/26 06:45:57;;;;;;;10.32;4.70;;;;;;;25.17;55.41;93318.75;5020729;28;20512;-90
2023/08/26 06:48:22;;;;;;;14.88;5.35;;;;;;;25.14;55.23;93325.41;4996971;28;20520;-90
2023/08/26 06:50:48;;;;;;;9.57;5.13;;;;;;;25.09;55.64;93322.88;4995306;28;20064;-90
2023/08/26 06:53:20;;;;;;;11.93;5.03;;;;;;;25.08;55.37;93324.91;5018119;28;20082;-91
2023/08/26 06:55:46;;;;;;;11.10;4.82;;;;;;;25.04;55.59;93323.78;5008910;28;20316;-90
2023/08/26 06:58:12;;;;;;;5.93;4.60;;;;;;;24.97;55.39;93310.72;5045711;28;20124;-91
2023/08/26 07:00:37;;;;;;;7.53;4.18;;;;;;;25.00;55.69;93287.47;5005280;28;20448;-91
2023/08/26 07:03:03;;;;;;;8.73;4.65;;;;;;;25.02;55.28;93274.56;5008809;28;20042;-91
2023/08/26 07:05:28;;;;;;;6.28;5.20;;;;;;;24.94;55.42;93285.63;4993924;28;20043;-90
2023/08/26 07:07:53;;;;;;;6.43;4.95;;;;;;;24.93;55.62;93295.19;5007027;28;20037;-90
2023/08/26 07:10:19;;;;;;;6.78;3.95;;;;;;;24.95;55.42;93308.50;4967268;28;20029;-90
2023/08/26 07:12:45;;;;;;;7.65;4.90;;;;;;;24.91;55.50;93324.69;5013962;28;20044;-91
2023/08/26 07:15:10;;;;;;;8.00;4.75;;;;;;;24.90;55.72;93328.75;5011074;28;20045;-90
2023/08/26 07:17:38;;;;;;;8.23;5.03;;;;;;;24.90;55.59;93325.97;5047717;28;20067;-92
2023/08/26 07:20:12;;;;;;;8.77;4.53;;;;;;;24.88;55.50;93323.06;5047969;28;20112;-91
2023/08/26 07:22:39;;;;;;;5.32;4.60;;;;;;;24.89;55.55;93321.78;5063532;28;20037;-91
2023/08/26 07:25:05;;;;;;;5.75;4.55;;;;;;;24.88;55.53;93307.22;5045804;28;20059;-91
2023/08/26 07:27:31;;;;;;;5.68;4.50;;;;;;;24.88;55.25;93293.38;5036025;28;20044;-91
2023/08/26 07:29:59;;;;;;;10.77;4.40;;;;;;;24.79;55.56;93282.88;5054166;28;20033;-91
2023/08/26 07:32:24;;;;;;;7.38;4.78;;;;;;;24.79;55.61;93290.44;5044425;28;20452;-91
2023/08/26 07:34:52;;;;;;;6.68;3.95;;;;;;;24.84;55.33;93284.72;5026225;28;20508;-90
2023/08/26 07:37:17;;;;;;;9.57;4.60;;;;;;;24.78;55.16;93251.00;5033419;28;20060;-89
2023/08/26 07:39:43;;;;;;;10.88;4.28;;;;;;;24.78;55.26;93241.97;5041488;28;20343;-92
2023/08/26 07:42:08;;;;;;;9.77;3.88;;;;;;;24.77;55.11;93265.38;5040506;28;20488;-91
2023/08/26 07:44:33;;;;;;;9.25;4.45;;;;;;;24.76;55.20;93267.41;5045936;28;20492;-91
2023/08/26 07:46:59;;;;;;;5.72;3.70;;;;;;;24.75;55.07;93265.19;5051253;28;20068;-90
2023/08/26 07:49:24;;;;;;;5.53;3.40;;;;;;;24.75;55.42;93271.47;5028200;28;20060;-91
2023/08/26 07:51:50;;;;;;;5.35;3.38;;;;;;;24.75;55.21;93243.81;5043310;28;20040;-90
2023/08/26 07:54:16;;;;;;;7.80;3.72;;;;;;;24.74;55.63;93233.31;5033113;28;20033;-91
2023/08/26 07:56:42;;;;;;;3.60;3.10;;;;;;;24.74;55.52;93227.78;5039706;28;20151;-92
2023/08/26 07:59:07;;;;;;;15.05;4.40;;;;;;;24.70;55.43;93236.44;5043862;28;20068;-91
2023/08/26 08:01:32;;;;;;;12.80;3.97;;;;;;;24.73;55.34;93242.91;5024271;28;20125;-91
2023/08/26 08:03:58;;;;;;;5.18;3.42;;;;;;;24.73;55.46;93231.84;5013036;28;20029;-90
2023/08/26 08:06:23;;;;;;;6.70;3.47;;;;;;;24.77;55.20;93232.19;5035584;28;20045;-90
2023/08/26 08:08:49;;;;;;;5.65;3.75;;;;;;;24.78;55.32;93239.19;5050918;28;20040;-91
2023/08/26 08:11:14;;;;;;;8.85;3.83;;;;;;;24.78;55.46;93253.03;5014863;28;20063;-91
2023/08/26 08:13:40;;;;;;;5.78;3.17;;;;;;;24.80;55.26;93248.41;5012243;28;20056;-89
2023/08/26 08:16:05;;;;;;;10.80;3.72;;;;;;;24.75;55.15;93243.81;5009701;28;20041;-91
2023/08/26 08:18:31;;;;;;;4.85;3.58;;;;;;;24.75;54.96;93246.59;5024848;28;20123;-90
2023/08/26 08:20:57;;;;;;;13.38;3.78;;;;;;;24.72;54.72;93250.44;5024033;28;20052;-91
2023/08/26 08:23:22;;;;;;;7.30;3.15;;;;;;;24.76;54.32;93259.09;5013057;28;21146;-91
2023/08/26 08:25:48;;;;;;;6.13;2.95;;;;;;;24.73;53.90;93251.94;5036818;28;20044;-91
2023/08/26 08:28:13;;;;;;;5.93;3.05;;;;;;;24.76;54.00;93253.59;5012730;28;20274;-91
2023/08/26 08:30:39;;;;;;;5.65;2.78;;;;;;;24.77;53.65;93255.06;5026052;28;20496;-91
2023/08/26 08:33:04;;;;;;;13.82;2.80;;;;;;;24.75;53.79;93257.63;5026845;28;20850;-91
2023/08/26 08:35:30;;;;;;;7.85;3.17;;;;;;;24.72;53.64;93263.53;5047256;28;20044;-92
2023/08/26 08:37:55;;;;;;;7.03;3.45;;;;;;;24.76;53.70;93258.38;5045001;28;20104;-92
2023/08/26 08:40:21;;;;;;;4.80;2.55;;;;;;;24.74;53.41;93272.75;5023651;28;20099;-91
2023/08/26 08:42:47;;;;;;;3.95;2.42;;;;;;;24.70;53.38;93272.38;5035221;28;20499;-91
2023/08/26 08:45:13;;;;;;;7.72;3.10;;;;;;;24.73;53.44;93270.53;5047543;28;20048;-92
2023/08/26 08:47:38;;;;;;;5.35;2.67;;;;;;;24.71;53.51;93270.34;5018111;28;20048;-91
2023/08/26 08:50:04;;;;;;;5.75;2.83;;;;;;;24.74;53.23;93266.47;5005280;28;20049;-91
2023/08/26 08:52:30;;;;;;;9.88;3.67;;;;;;;24.76;53.55;93280.50;5031285;28;20044;-90
2023/08/26 08:54:55;;;;;;;6.22;3.33;;;;;;;24.73;53.44;93273.31;5036007;28;20435;-90
2023/08/26 08:57:23;;;;;;;3.63;2.65;;;;;;;24.73;53.56;93268.50;5040632;28;20049;-91
2023/08/26 08:59:49;;;;;;;4.32;2.90;;;;;;;24.70;53.70;93266.84;5038566;28;20044;-91
2023/08/26 09:02:14;;;;;;;6.03;3.45;;;;;;;24.73;54.02;93259.47;5027994;28;20041;-90
2023/08/26 09:04:41;;;;;;;6.40;3.55;;;;;;;24.76;53.95;93264.63;5047075;28;20037;-91
2023/08/26 09:07:07;;;;;;;7.78;3.08;;;;;;;24.74;54.21;93258.19;5033884;28;20109;-91
2023/08/26 09:09:32;;;;;;;4.75;3.10;;;;;;;24.75;54.09;93259.66;5030131;28;20040;-90
2023/08/26 09:12:00;;;;;;;8.57;3.60;;;;;;;24.73;54.12;93254.69;5050888;28;20419;-90
2023/08/26 09:14:25;;;;;;;7.25;3.38;;;;;;;24.78;53.99;93259.28;5035359;28;20476;-92
2023/08/26 09:16:51;;;;;;;5.68;3.03;;;;;;;24.76;54.02;93252.84;5052746;28;20102;-91
2023/08/26 09:19:16;;;;;;;6.85;2.70;;;;;;;24.85;54.02;93236.44;5044167;28;20111;-90
2023/08/26 09:21:42;;;;;;;4.13;2.85;;;;;;;24.82;53.91;93243.06;5049723;28;20063;-90
2023/08/26 09:24:13;;;;;;;4.82;2.47;;;;;;;24.86;53.84;93239.94;5042448;28;20041;-91
2023/08/26 09:26:38;;;;;;;4.80;3.70;;;;;;;24.84;53.90;93242.50;5036359;28;20048;-91
2023/08/26 09:29:13;;;;;;;5.30;3.13;;;;;;;24.83;53.93;93236.25;5051171;28;20048;-92
2023/08/26 09:31:48;;;;;;;3.50;2.88;;;;;;;24.84;53.69;93232.19;5041912;28;20079;-92
2023/08/26 09:34:22;;;;;;;9.25;3.00;;;;;;;24.84;53.93;93226.66;5051630;28;20033;-91
2023/08/26 09:36:48;;;;;;;3.72;3.03;;;;;;;24.81;53.69;93216.72;5034371;28;20040;-92
2023/08/26 09:39:14;;;;;;;5.70;2.67;;;;;;;24.87;53.66;93213.75;5035323;28;20377;-90
2023/08/26 09:41:43;;;;;;;6.35;3.70;;;;;;;24.86;53.73;93213.00;5034495;28;20135;-90
2023/08/26 09:44:10;;;;;;;5.53;3.20;;;;;;;24.86;53.91;93215.03;5038045;28;20072;-91
2023/08/26 09:46:36;;;;;;;7.28;3.65;;;;;;;24.88;53.88;93218.72;5040300;28;20068;-91
2023/08/26 09:49:03;;;;;;;4.70;3.25;;;;;;;24.90;53.87;93218.13;5051593;28;20059;-90
2023/08/26 09:51:29;;;;;;;6.03;3.67;;;;;;;24.89;53.63;93208.41;5051632;28;20060;-91
2023/08/26 09:53:55;;;;;;;5.85;3.15;;;;;;;24.94;53.61;93216.50;5034219;28;20052;-91
2023/08/26 09:56:25;;;;;;;6.43;3.95;;;;;;;24.95;53.47;93206.19;5036045;28;20049;-90
2023/08/26 09:58:54;;;;;;;5.45;3.50;;;;;;;24.99;53.56;93208.56;5048696;28;20044;-90
2023/08/26 10:01:22;;;;;;;9.43;3.87;;;;;;;24.97;53.69;93214.66;5050210;28;20792;-90
2023/08/26 10:04:08;;;;;;;9.85;3.70;;;;;;;24.99;53.91;93216.84;5047978;28;20077;-91
2023/08/26 10:06:38;;;;;;;6.18;3.25;;;;;;;24.99;54.08;93220.34;5036464;28;20059;-91
2023/08/26 10:09:08;;;;;;;11.88;4.20;;;;;;;24.99;53.88;93220.34;5028682;28;20037;-92
2023/08/26 10:11:38;;;;;;;13.23;4.18;;;;;;;24.99;53.98;93225.88;5049051;28;20047;-92
2023/08/26 10:14:03;;;;;;;8.80;3.67;;;;;;;25.03;54.09;93219.97;5033682;28;20040;-90
2023/08/26 10:16:29;;;;;;;10.77;3.72;;;;;;;25.02;54.04;93212.97;5046076;28;20388;-92
2023/08/26 10:18:56;;;;;;;6.97;4.22;;;;;;;25.05;54.17;93228.47;5028283;28;20518;-91
2023/08/26 10:21:21;;;;;;;8.23;3.70;;;;;;;25.04;54.34;93226.97;5046415;28;20495;-91
2023/08/26 10:23:50;;;;;;;5.70;3.83;;;;;;;25.04;54.35;93219.44;5049472;28;20104;-91
2023/08/26 10:26:18;;;;;;;8.07;3.85;;;;;;;25.05;54.33;93220.16;5024522;28;20036;-90
2023/08/26 10:28:43;;;;;;;8.70;3.95;;;;;;;25.08;54.06;93216.28;5034588;28;20670;-90
2023/08/26 10:31:09;;;;;;;5.60;3.88;;;;;;;25.08;54.27;93214.25;5038170;28;20033;-91
2023/08/26 10:34:00;;;;;;;5.95;3.60;;;;;;;25.08;54.09;93205.22;5047088;28;20098;-91
2023/08/26 10:36:25;;;;;;;6.68;3.40;;;;;;;25.11;54.10;93212.41;5054624;28;20041;-91
2023/08/26 10:38:56;;;;;;;10.75;3.83;;;;;;;25.12;54.09;93202.78;5028137;28;20040;-91
2023/08/26 10:41:22;;;;;;;6.28;4.00;;;;;;;25.13;54.23;93216.06;5042845;28;20037;-91
2023/08/26 10:43:54;;;;;;;6.68;3.95;;;;;;;25.13;54.40;93213.28;5031176;28;20055;-90
2023/08/26 10:46:52;;;;;;;6.95;3.40;;;;;;;25.13;54.00;93212.53;5055524;28;20040;-91
2023/08/26 10:49:18;;;;;;;5.03;3.40;;;;;;;25.17;54.17;93199.81;5033069;28;20441;-91
2023/08/26 10:51:44;;;;;;;8.73;3.58;;;;;;;25.17;54.07;93218.44;5046844;28;20084;-91
2023/08/26 10:54:09;;;;;;;8.52;3.33;;;;;;;25.17;54.31;93212.91;5033847;28;20507;-91
2023/08/26 10:56:39;;;;;;;3.85;2.95;;;;;;;25.17;54.09;93216.41;5033353;28;20040;-92
2023/08/26 10:59:06;;;;;;;9.23;3.20;;;;;;;25.19;54.24;93211.06;5050197;28;20055;-91
2023/08/26 11:01:34;;;;;;;4.53;3.45;;;;;;;25.18;54.06;93204.03;5048642;28;20367;-91
2023/08/26 11:04:00;;;;;;;4.85;3.53;;;;;;;25.20;53.93;93206.25;5041863;28;20127;-90
2023/08/26 11:06:26;;;;;;;3.83;2.85;;;;;;;25.20;54.11;93209.03;5048077;28;20037;-91
2023/08/26 11:08:57;;;;;;;10.10;3.38;;;;;;;25.19;53.89;93202.75;5032261;28;20041;-91
2023/08/26 11:11:23;;;;;;;4.95;2.90;;;;;;;25.21;53.94;93196.66;5034274;28;20531;-91
2023/08/26 11:13:49;;;;;;;6.20;3.40;;;;;;;25.21;53.91;93200.16;5042689;28;20044;-91
2023/08/26 11:16:15;;;;;;;5.40;3.35;;;;;;;25.22;54.17;93184.28;5046590;28;20476;-91
2023/08/26 11:18:41;;;;;;;9.07;3.40;;;;;;;25.22;53.92;93182.25;5046432;28;20037;-90
2023/08/26 11:21:07;;;;;;;8.57;3.55;;;;;;;25.21;54.06;93180.06;5033808;28;20091;-93
2023/08/26 11:23:32;;;;;;;6.40;3.13;;;;;;;25.24;53.90;93185.22;5035219;28;20055;-91
2023/08/26 11:25:58;;;;;;;5.50;2.83;;;;;;;25.24;53.83;93174.16;5043753;28;20032;-90
2023/08/26 11:28:26;;;;;;;3.03;2.55;;;;;;;25.24;53.85;93178.94;5029562;28;20499;-91
2023/08/26 11:30:51;;;;;;;4.45;2.72;;;;;;;25.22;53.94;93171.19;5044393;28;20051;-91